sensor_id;sensor_type;location;lat;lon;timestamp;P1;durP1;ratioP1;P2;durP2;ratioP2
31906;SDS011;18455;50.858;13.662;2024-02-14T00:03:32;6.53;;;2.40;;
31906;SDS011;18455;50.858;13.662;2024-02-14T00:08:32;4.63;;;3.03;;
31906;SDS011;18455;50.858;13.662;2024-02-14T00:13:32;2.57;;;2.30;;
31906;SDS011;18455;50.858;13.662;2024-02-14T00:18:34;2.77;;;2.00;;
31906;SDS011;18455;50.858;13.662;2024-02-14T00:23:34;5.00;;;2.37;;
31906;SDS011;18455;50.858;13.662;2024-02-14T00:28:34;6.00;;;2.00;;
31906;SDS011;18455;50.858;13.662;2024-02-14T00:33:34;3.77;;;2.27;;
31906;SDS011;18455;50.858;13.662;2024-02-14T00:38:34;5.63;;;2.10;;
31906;SDS011;18455;50.858;13.662;2024-02-14T00:43:34;4.30;;;2.00;;
31906;SDS011;18455;50.858;13.662;2024-02-14T00:48:35;4.67;;;2.00;;
31906;SDS011;18455;50.858;13.662;2024-02-14T00:53:35;3.50;;;2.07;;
31906;SDS011;18455;50.858;13.662;2024-02-14T00:58:35;2.63;;;1.77;;
31906;SDS011;18455;50.858;13.662;2024-02-14T01:03:35;2.47;;;1.97;;
31906;SDS011;18455;50.858;13.662;2024-02-14T01:08:35;6.77;;;2.30;;
31906;SDS011;18455;50.858;13.662;2024-02-14T01:13:36;6.10;;;2.00;;
31906;SDS011;18455;50.858;13.662;2024-02-14T01:18:36;2.70;;;1.90;;
31906;SDS011;18455;50.858;13.662;2024-02-14T01:23:36;2.30;;;1.83;;
31906;SDS011;18455;50.858;13.662;2024-02-14T01:28:37;4.80;;;1.87;;
31906;SDS011;18455;50.858;13.662;2024-02-14T01:33:38;1.90;;;1.70;;
31906;SDS011;18455;50.858;13.662;2024-02-14T01:38:38;2.77;;;1.77;;
31906;SDS011;18455;50.858;13.662;2024-02-14T01:43:38;5.70;;;2.43;;
31906;SDS011;18455;50.858;13.662;2024-02-14T01:48:38;1.80;;;1.70;;
31906;SDS011;18455;50.858;13.662;2024-02-14T01:53:40;3.97;;;1.97;;
31906;SDS011;18455;50.858;13.662;2024-02-14T01:58:41;1.77;;;1.57;;
31906;SDS011;18455;50.858;13.662;2024-02-14T02:03:42;4.17;;;1.77;;
31906;SDS011;18455;50.858;13.662;2024-02-14T02:08:43;5.43;;;1.90;;
31906;SDS011;18455;50.858;13.662;2024-02-14T02:13:43;3.77;;;1.90;;
31906;SDS011;18455;50.858;13.662;2024-02-14T02:18:45;6.90;;;1.57;;
31906;SDS011;18455;50.858;13.662;2024-02-14T02:23:46;6.33;;;1.80;;
31906;SDS011;18455;50.858;13.662;2024-02-14T02:28:46;2.30;;;1.77;;
31906;SDS011;18455;50.858;13.662;2024-02-14T02:33:46;3.07;;;2.10;;
31906;SDS011;18455;50.858;13.662;2024-02-14T02:38:47;2.97;;;1.80;;
31906;SDS011;18455;50.858;13.662;2024-02-14T02:43:47;3.40;;;1.93;;
31906;SDS011;18455;50.858;13.662;2024-02-14T02:48:49;3.00;;;1.80;;
31906;SDS011;18455;50.858;13.662;2024-02-14T02:53:50;7.60;;;2.10;;
31906;SDS011;18455;50.858;13.662;2024-02-14T02:58:52;3.23;;;1.77;;
31906;SDS011;18455;50.858;13.662;2024-02-14T03:03:53;5.33;;;1.90;;
31906;SDS011;18455;50.858;13.662;2024-02-14T03:08:53;4.17;;;1.77;;
31906;SDS011;18455;50.858;13.662;2024-02-14T03:13:55;3.03;;;1.83;;
31906;SDS011;18455;50.858;13.662;2024-02-14T03:18:56;2.40;;;1.63;;
31906;SDS011;18455;50.858;13.662;2024-02-14T03:23:56;2.27;;;1.70;;
31906;SDS011;18455;50.858;13.662;2024-02-14T03:28:56;1.70;;;1.23;;
31906;SDS011;18455;50.858;13.662;2024-02-14T03:33:56;4.07;;;1.97;;
31906;SDS011;18455;50.858;13.662;2024-02-14T03:38:56;3.80;;;1.50;;
31906;SDS011;18455;50.858;13.662;2024-02-14T03:43:57;2.40;;;1.67;;
31906;SDS011;18455;50.858;13.662;2024-02-14T03:49:01;3.50;;;2.00;;
31906;SDS011;18455;50.858;13.662;2024-02-14T03:54:02;2.53;;;1.77;;
31906;SDS011;18455;50.858;13.662;2024-02-14T03:59:02;3.90;;;1.50;;
31906;SDS011;18455;50.858;13.662;2024-02-14T04:04:02;5.00;;;1.53;;
31906;SDS011;18455;50.858;13.662;2024-02-14T04:09:03;2.37;;;1.50;;
31906;SDS011;18455;50.858;13.662;2024-02-14T04:14:03;7.10;;;1.77;;
31906;SDS011;18455;50.858;13.662;2024-02-14T04:19:03;3.33;;;1.43;;
31906;SDS011;18455;50.858;13.662;2024-02-14T04:24:03;2.83;;;1.40;;
31906;SDS011;18455;50.858;13.662;2024-02-14T04:29:03;1.45;;;1.25;;
31906;SDS011;18455;50.858;13.662;2024-02-14T04:34:04;1.30;;;1.10;;
31906;SDS011;18455;50.858;13.662;2024-02-14T04:39:05;12.40;;;3.80;;
31906;SDS011;18455;50.858;13.662;2024-02-14T04:44:05;21.00;;;8.30;;
31906;SDS011;18455;50.858;13.662;2024-02-14T04:49:09;25.90;;;7.90;;
31906;SDS011;18455;50.858;13.662;2024-02-14T04:54:09;35.60;;;14.50;;
31906;SDS011;18455;50.858;13.662;2024-02-14T04:59:10;27.37;;;9.90;;
31906;SDS011;18455;50.858;13.662;2024-02-14T05:04:10;36.27;;;11.87;;
31906;SDS011;18455;50.858;13.662;2024-02-14T05:09:10;41.60;;;18.33;;
31906;SDS011;18455;50.858;13.662;2024-02-14T05:14:10;28.10;;;14.80;;
31906;SDS011;18455;50.858;13.662;2024-02-14T05:19:10;8.53;;;4.83;;
31906;SDS011;18455;50.858;13.662;2024-02-14T05:24:11;1.73;;;1.20;;
31906;SDS011;18455;50.858;13.662;2024-02-14T05:29:11;1.93;;;1.30;;
31906;SDS011;18455;50.858;13.662;2024-02-14T05:34:11;1.50;;;1.40;;
31906;SDS011;18455;50.858;13.662;2024-02-14T05:39:11;2.50;;;1.37;;
31906;SDS011;18455;50.858;13.662;2024-02-14T05:44:12;2.13;;;1.30;;
31906;SDS011;18455;50.858;13.662;2024-02-14T05:49:12;5.90;;;1.83;;
31906;SDS011;18455;50.858;13.662;2024-02-14T05:54:12;3.23;;;1.60;;
31906;SDS011;18455;50.858;13.662;2024-02-14T05:59:13;1.40;;;1.27;;
31906;SDS011;18455;50.858;13.662;2024-02-14T06:04:13;3.00;;;1.20;;
31906;SDS011;18455;50.858;13.662;2024-02-14T06:09:13;5.27;;;1.67;;
31906;SDS011;18455;50.858;13.662;2024-02-14T06:14:13;2.20;;;1.40;;
31906;SDS011;18455;50.858;13.662;2024-02-14T06:19:14;3.88;;;1.20;;
31906;SDS011;18455;50.858;13.662;2024-02-14T06:24:14;3.83;;;1.50;;
31906;SDS011;18455;50.858;13.662;2024-02-14T06:29:14;3.30;;;1.10;;
31906;SDS011;18455;50.858;13.662;2024-02-14T06:34:15;2.93;;;1.20;;
31906;SDS011;18455;50.858;13.662;2024-02-14T06:39:15;9.37;;;2.03;;
31906;SDS011;18455;50.858;13.662;2024-02-14T06:44:15;5.30;;;1.40;;
31906;SDS011;18455;50.858;13.662;2024-02-14T06:49:15;4.40;;;2.07;;
31906;SDS011;18455;50.858;13.662;2024-02-14T06:54:16;2.50;;;1.60;;
31906;SDS011;18455;50.858;13.662;2024-02-14T06:59:17;6.23;;;1.40;;
31906;SDS011;18455;50.858;13.662;2024-02-14T07:04:17;5.23;;;1.50;;
31906;SDS011;18455;50.858;13.662;2024-02-14T07:09:25;3.93;;;1.50;;
31906;SDS011;18455;50.858;13.662;2024-02-14T07:14:25;4.28;;;1.63;;
31906;SDS011;18455;50.858;13.662;2024-02-14T07:19:25;5.80;;;1.80;;
31906;SDS011;18455;50.858;13.662;2024-02-14T07:24:26;2.63;;;1.53;;
31906;SDS011;18455;50.858;13.662;2024-02-14T07:29:26;11.47;;;5.13;;
31906;SDS011;18455;50.858;13.662;2024-02-14T07:34:27;13.37;;;6.17;;
31906;SDS011;18455;50.858;13.662;2024-02-14T07:39:27;5.03;;;2.57;;
31906;SDS011;18455;50.858;13.662;2024-02-14T07:44:27;3.43;;;1.60;;
31906;SDS011;18455;50.858;13.662;2024-02-14T07:49:27;2.47;;;1.70;;
31906;SDS011;18455;50.858;13.662;2024-02-14T07:54:28;4.30;;;1.43;;
31906;SDS011;18455;50.858;13.662;2024-02-14T07:59:28;4.80;;;1.90;;
31906;SDS011;18455;50.858;13.662;2024-02-14T08:04:28;1.23;;;1.13;;
31906;SDS011;18455;50.858;13.662;2024-02-14T08:09:29;4.80;;;1.60;;
31906;SDS011;18455;50.858;13.662;2024-02-14T08:14:29;3.33;;;1.80;;
31906;SDS011;18455;50.858;13.662;2024-02-14T08:19:29;2.50;;;1.73;;
31906;SDS011;18455;50.858;13.662;2024-02-14T08:24:29;4.57;;;2.17;;
31906;SDS011;18455;50.858;13.662;2024-02-14T08:29:30;3.97;;;1.70;;
31906;SDS011;18455;50.858;13.662;2024-02-14T08:34:31;3.07;;;1.63;;
31906;SDS011;18455;50.858;13.662;2024-02-14T08:39:31;3.10;;;1.73;;
31906;SDS011;18455;50.858;13.662;2024-02-14T08:44:31;3.33;;;1.73;;
31906;SDS011;18455;50.858;13.662;2024-02-14T08:49:31;1.43;;;1.33;;
31906;SDS011;18455;50.858;13.662;2024-02-14T08:54:31;3.03;;;1.80;;
31906;SDS011;18455;50.858;13.662;2024-02-14T08:59:32;1.97;;;1.33;;
31906;SDS011;18455;50.858;13.662;2024-02-14T09:04:32;5.27;;;1.83;;
31906;SDS011;18455;50.858;13.662;2024-02-14T09:09:33;3.50;;;1.70;;
31906;SDS011;18455;50.858;13.662;2024-02-14T09:14:33;3.00;;;1.70;;
31906;SDS011;18455;50.858;13.662;2024-02-14T09:19:33;5.43;;;1.73;;
31906;SDS011;18455;50.858;13.662;2024-02-14T09:24:33;4.27;;;1.70;;
31906;SDS011;18455;50.858;13.662;2024-02-14T09:29:33;5.33;;;1.47;;
31906;SDS011;18455;50.858;13.662;2024-02-14T09:34:34;1.97;;;1.30;;
31906;SDS011;18455;50.858;13.662;2024-02-14T09:39:34;1.47;;;1.00;;
31906;SDS011;18455;50.858;13.662;2024-02-14T09:44:38;3.17;;;1.80;;
31906;SDS011;18455;50.858;13.662;2024-02-14T09:49:40;1.97;;;1.03;;
31906;SDS011;18455;50.858;13.662;2024-02-14T09:54:40;2.93;;;1.20;;
31906;SDS011;18455;50.858;13.662;2024-02-14T09:59:41;2.20;;;1.30;;
31906;SDS011;18455;50.858;13.662;2024-02-14T10:04:41;3.23;;;1.70;;
31906;SDS011;18455;50.858;13.662;2024-02-14T10:09:42;3.43;;;1.77;;
31906;SDS011;18455;50.858;13.662;2024-02-14T10:14:42;3.33;;;1.40;;
31906;SDS011;18455;50.858;13.662;2024-02-14T10:19:42;3.07;;;1.30;;
31906;SDS011;18455;50.858;13.662;2024-02-14T10:24:42;2.13;;;1.20;;
31906;SDS011;18455;50.858;13.662;2024-02-14T10:29:43;0.90;;;0.90;;
31906;SDS011;18455;50.858;13.662;2024-02-14T10:34:44;1.43;;;1.13;;
31906;SDS011;18455;50.858;13.662;2024-02-14T10:39:47;2.03;;;1.10;;
31906;SDS011;18455;50.858;13.662;2024-02-14T10:44:48;3.97;;;1.23;;
31906;SDS011;18455;50.858;13.662;2024-02-14T10:49:49;2.30;;;1.10;;
31906;SDS011;18455;50.858;13.662;2024-02-14T10:54:52;1.30;;;1.13;;
31906;SDS011;18455;50.858;13.662;2024-02-14T10:59:57;3.22;;;1.27;;
31906;SDS011;18455;50.858;13.662;2024-02-14T11:04:57;1.90;;;1.10;;
31906;SDS011;18455;50.858;13.662;2024-02-14T11:20:12;5.55;;;1.40;;
31906;SDS011;18455;50.858;13.662;2024-02-14T11:25:15;2.03;;;1.30;;
31906;SDS011;18455;50.858;13.662;2024-02-14T11:30:26;3.83;;;1.25;;
31906;SDS011;18455;50.858;13.662;2024-02-14T11:35:26;1.20;;;1.10;;
31906;SDS011;18455;50.858;13.662;2024-02-14T11:40:26;1.13;;;1.00;;
31906;SDS011;18455;50.858;13.662;2024-02-14T11:45:27;2.30;;;1.03;;
31906;SDS011;18455;50.858;13.662;2024-02-14T11:50:27;1.92;;;1.08;;
31906;SDS011;18455;50.858;13.662;2024-02-14T11:55:29;2.30;;;1.17;;
31906;SDS011;18455;50.858;13.662;2024-02-14T12:00:30;2.97;;;1.20;;
31906;SDS011;18455;50.858;13.662;2024-02-14T12:05:30;1.30;;;1.10;;
31906;SDS011;18455;50.858;13.662;2024-02-14T12:10:34;2.07;;;0.90;;
31906;SDS011;18455;50.858;13.662;2024-02-14T12:15:41;1.97;;;1.03;;
31906;SDS011;18455;50.858;13.662;2024-02-14T12:20:42;1.47;;;1.30;;
31906;SDS011;18455;50.858;13.662;2024-02-14T12:25:43;3.47;;;1.80;;
31906;SDS011;18455;50.858;13.662;2024-02-14T12:30:44;6.43;;;4.20;;
31906;SDS011;18455;50.858;13.662;2024-02-14T12:35:49;6.70;;;4.23;;
31906;SDS011;18455;50.858;13.662;2024-02-14T12:40:50;2.60;;;1.67;;
31906;SDS011;18455;50.858;13.662;2024-02-14T12:45:51;1.70;;;1.20;;
31906;SDS011;18455;50.858;13.662;2024-02-14T12:50:51;1.90;;;1.30;;
31906;SDS011;18455;50.858;13.662;2024-02-14T12:55:52;1.40;;;1.30;;
31906;SDS011;18455;50.858;13.662;2024-02-14T13:00:53;1.77;;;1.40;;
31906;SDS011;18455;50.858;13.662;2024-02-14T13:05:53;2.50;;;1.93;;
31906;SDS011;18455;50.858;13.662;2024-02-14T13:10:55;3.27;;;1.27;;
31906;SDS011;18455;50.858;13.662;2024-02-14T13:15:56;2.37;;;1.30;;
31906;SDS011;18455;50.858;13.662;2024-02-14T13:20:57;3.60;;;1.30;;
31906;SDS011;18455;50.858;13.662;2024-02-14T13:25:59;3.40;;;1.40;;
31906;SDS011;18455;50.858;13.662;2024-02-14T13:31:00;4.03;;;3.00;;
31906;SDS011;18455;50.858;13.662;2024-02-14T13:36:00;1.63;;;1.20;;
31906;SDS011;18455;50.858;13.662;2024-02-14T13:41:00;2.77;;;1.10;;
31906;SDS011;18455;50.858;13.662;2024-02-14T13:46:00;1.73;;;1.27;;
31906;SDS011;18455;50.858;13.662;2024-02-14T13:51:01;2.93;;;1.30;;
31906;SDS011;18455;50.858;13.662;2024-02-14T13:56:03;2.07;;;1.27;;
31906;SDS011;18455;50.858;13.662;2024-02-14T14:01:04;3.30;;;1.20;;
31906;SDS011;18455;50.858;13.662;2024-02-14T14:06:04;1.83;;;1.47;;
31906;SDS011;18455;50.858;13.662;2024-02-14T14:11:05;1.67;;;1.37;;
31906;SDS011;18455;50.858;13.662;2024-02-14T14:16:05;1.43;;;1.23;;
31906;SDS011;18455;50.858;13.662;2024-02-14T14:21:06;2.70;;;1.40;;
31906;SDS011;18455;50.858;13.662;2024-02-14T14:26:06;2.30;;;1.40;;
31906;SDS011;18455;50.858;13.662;2024-02-14T14:31:07;2.07;;;1.20;;
31906;SDS011;18455;50.858;13.662;2024-02-14T14:36:09;2.23;;;1.40;;
31906;SDS011;18455;50.858;13.662;2024-02-14T14:41:09;2.00;;;1.60;;
31906;SDS011;18455;50.858;13.662;2024-02-14T14:46:10;1.73;;;1.27;;
31906;SDS011;18455;50.858;13.662;2024-02-14T14:51:11;3.03;;;2.50;;
31906;SDS011;18455;50.858;13.662;2024-02-14T14:56:11;11.07;;;6.40;;
31906;SDS011;18455;50.858;13.662;2024-02-14T15:01:11;1.63;;;1.20;;
31906;SDS011;18455;50.858;13.662;2024-02-14T15:06:13;1.67;;;1.50;;
31906;SDS011;18455;50.858;13.662;2024-02-14T15:11:15;2.13;;;1.60;;
31906;SDS011;18455;50.858;13.662;2024-02-14T15:16:18;2.00;;;1.30;;
31906;SDS011;18455;50.858;13.662;2024-02-14T15:21:18;1.50;;;1.40;;
31906;SDS011;18455;50.858;13.662;2024-02-14T15:26:18;2.40;;;1.40;;
31906;SDS011;18455;50.858;13.662;2024-02-14T15:31:18;8.57;;;5.80;;
31906;SDS011;18455;50.858;13.662;2024-02-14T15:36:37;3.63;;;1.57;;
31906;SDS011;18455;50.858;13.662;2024-02-14T15:41:37;3.90;;;1.50;;
31906;SDS011;18455;50.858;13.662;2024-02-14T15:46:38;4.70;;;3.33;;
31906;SDS011;18455;50.858;13.662;2024-02-14T15:51:38;1.57;;;1.40;;
31906;SDS011;18455;50.858;13.662;2024-02-14T15:56:38;2.57;;;1.60;;
31906;SDS011;18455;50.858;13.662;2024-02-14T16:01:38;3.40;;;2.23;;
31906;SDS011;18455;50.858;13.662;2024-02-14T16:06:39;3.27;;;2.10;;
31906;SDS011;18455;50.858;13.662;2024-02-14T16:11:39;2.27;;;1.70;;
31906;SDS011;18455;50.858;13.662;2024-02-14T16:16:40;7.93;;;5.37;;
31906;SDS011;18455;50.858;13.662;2024-02-14T16:21:40;2.90;;;2.60;;
31906;SDS011;18455;50.858;13.662;2024-02-14T16:26:41;5.63;;;1.93;;
31906;SDS011;18455;50.858;13.662;2024-02-14T16:32:01;7.10;;;6.10;;
31906;SDS011;18455;50.858;13.662;2024-02-14T16:37:02;4.20;;;3.80;;
31906;SDS011;18455;50.858;13.662;2024-02-14T16:42:08;2.47;;;2.13;;
31906;SDS011;18455;50.858;13.662;2024-02-14T16:47:09;1.93;;;1.73;;
31906;SDS011;18455;50.858;13.662;2024-02-14T16:52:10;1.63;;;1.50;;
31906;SDS011;18455;50.858;13.662;2024-02-14T16:57:10;3.50;;;1.87;;
31906;SDS011;18455;50.858;13.662;2024-02-14T17:02:11;4.40;;;2.90;;
31906;SDS011;18455;50.858;13.662;2024-02-14T17:07:14;3.97;;;2.90;;
31906;SDS011;18455;50.858;13.662;2024-02-14T17:12:14;2.13;;;1.80;;
31906;SDS011;18455;50.858;13.662;2024-02-14T17:17:15;2.23;;;1.30;;
31906;SDS011;18455;50.858;13.662;2024-02-14T17:22:16;3.60;;;2.10;;
31906;SDS011;18455;50.858;13.662;2024-02-14T17:27:16;2.70;;;1.20;;
31906;SDS011;18455;50.858;13.662;2024-02-14T17:32:16;1.53;;;1.43;;
31906;SDS011;18455;50.858;13.662;2024-02-14T17:37:17;2.20;;;2.00;;
31906;SDS011;18455;50.858;13.662;2024-02-14T17:42:17;2.83;;;2.23;;
31906;SDS011;18455;50.858;13.662;2024-02-14T17:47:17;6.50;;;3.90;;
31906;SDS011;18455;50.858;13.662;2024-02-14T17:52:18;5.97;;;3.00;;
31906;SDS011;18455;50.858;13.662;2024-02-14T17:57:20;3.10;;;2.23;;
31906;SDS011;18455;50.858;13.662;2024-02-14T18:02:22;3.03;;;2.00;;
31906;SDS011;18455;50.858;13.662;2024-02-14T18:07:22;5.83;;;2.80;;
31906;SDS011;18455;50.858;13.662;2024-02-14T18:12:22;4.60;;;2.50;;
31906;SDS011;18455;50.858;13.662;2024-02-14T18:17:25;4.67;;;2.87;;
31906;SDS011;18455;50.858;13.662;2024-02-14T18:22:26;4.33;;;3.03;;
31906;SDS011;18455;50.858;13.662;2024-02-14T18:27:26;8.97;;;5.87;;
31906;SDS011;18455;50.858;13.662;2024-02-14T18:32:28;12.40;;;7.27;;
31906;SDS011;18455;50.858;13.662;2024-02-14T18:37:28;2.30;;;2.10;;
31906;SDS011;18455;50.858;13.662;2024-02-14T18:42:29;4.43;;;2.90;;
31906;SDS011;18455;50.858;13.662;2024-02-14T18:47:29;3.57;;;2.80;;
31906;SDS011;18455;50.858;13.662;2024-02-14T18:52:29;7.37;;;4.67;;
31906;SDS011;18455;50.858;13.662;2024-02-14T18:57:29;4.47;;;2.93;;
31906;SDS011;18455;50.858;13.662;2024-02-14T19:02:29;7.50;;;5.03;;
31906;SDS011;18455;50.858;13.662;2024-02-14T19:07:33;2.47;;;1.90;;
31906;SDS011;18455;50.858;13.662;2024-02-14T19:12:33;3.43;;;2.07;;
31906;SDS011;18455;50.858;13.662;2024-02-14T19:17:33;2.87;;;2.37;;
31906;SDS011;18455;50.858;13.662;2024-02-14T19:22:34;4.23;;;2.10;;
31906;SDS011;18455;50.858;13.662;2024-02-14T19:27:34;4.07;;;1.90;;
31906;SDS011;18455;50.858;13.662;2024-02-14T19:32:34;4.27;;;3.10;;
31906;SDS011;18455;50.858;13.662;2024-02-14T19:37:38;3.00;;;2.70;;
31906;SDS011;18455;50.858;13.662;2024-02-14T19:42:39;3.03;;;1.73;;
31906;SDS011;18455;50.858;13.662;2024-02-14T19:47:39;3.83;;;2.30;;
31906;SDS011;18455;50.858;13.662;2024-02-14T19:52:39;2.40;;;2.10;;
31906;SDS011;18455;50.858;13.662;2024-02-14T19:57:39;3.20;;;2.13;;
31906;SDS011;18455;50.858;13.662;2024-02-14T20:02:39;5.07;;;1.80;;
31906;SDS011;18455;50.858;13.662;2024-02-14T20:07:40;2.50;;;2.17;;
31906;SDS011;18455;50.858;13.662;2024-02-14T20:12:42;4.03;;;2.63;;
31906;SDS011;18455;50.858;13.662;2024-02-14T20:17:43;6.10;;;3.47;;
31906;SDS011;18455;50.858;13.662;2024-02-14T20:22:44;11.23;;;5.27;;
31906;SDS011;18455;50.858;13.662;2024-02-14T20:27:44;4.63;;;3.00;;
31906;SDS011;18455;50.858;13.662;2024-02-14T20:32:51;3.10;;;2.23;;
31906;SDS011;18455;50.858;13.662;2024-02-14T20:37:51;2.40;;;2.20;;
31906;SDS011;18455;50.858;13.662;2024-02-14T20:42:51;4.17;;;1.93;;
31906;SDS011;18455;50.858;13.662;2024-02-14T20:47:51;2.83;;;1.77;;
31906;SDS011;18455;50.858;13.662;2024-02-14T20:52:52;2.27;;;1.60;;
31906;SDS011;18455;50.858;13.662;2024-02-14T20:57:52;3.20;;;1.90;;
31906;SDS011;18455;50.858;13.662;2024-02-14T21:02:54;1.57;;;1.37;;
31906;SDS011;18455;50.858;13.662;2024-02-14T21:07:54;2.33;;;1.50;;
31906;SDS011;18455;50.858;13.662;2024-02-14T21:12:54;1.30;;;1.20;;
31906;SDS011;18455;50.858;13.662;2024-02-14T21:17:54;2.17;;;1.57;;
31906;SDS011;18455;50.858;13.662;2024-02-14T21:22:55;2.80;;;1.53;;
31906;SDS011;18455;50.858;13.662;2024-02-14T21:27:55;2.00;;;1.40;;
31906;SDS011;18455;50.858;13.662;2024-02-14T21:32:56;1.27;;;1.20;;
31906;SDS011;18455;50.858;13.662;2024-02-14T21:37:56;1.40;;;1.30;;
31906;SDS011;18455;50.858;13.662;2024-02-14T21:42:57;1.43;;;1.30;;
31906;SDS011;18455;50.858;13.662;2024-02-14T21:47:57;2.13;;;1.30;;
31906;SDS011;18455;50.858;13.662;2024-02-14T21:53:00;1.60;;;1.47;;
31906;SDS011;18455;50.858;13.662;2024-02-14T21:58:00;1.60;;;1.27;;
31906;SDS011;18455;50.858;13.662;2024-02-14T22:03:00;1.10;;;1.10;;
31906;SDS011;18455;50.858;13.662;2024-02-14T22:08:01;1.63;;;1.40;;
31906;SDS011;18455;50.858;13.662;2024-02-14T22:13:01;2.10;;;1.43;;
31906;SDS011;18455;50.858;13.662;2024-02-14T22:18:01;2.60;;;1.40;;
31906;SDS011;18455;50.858;13.662;2024-02-14T22:23:02;2.60;;;1.53;;
31906;SDS011;18455;50.858;13.662;2024-02-14T22:28:02;1.77;;;1.50;;
31906;SDS011;18455;50.858;13.662;2024-02-14T22:33:06;1.47;;;1.30;;
31906;SDS011;18455;50.858;13.662;2024-02-14T22:38:06;2.53;;;1.80;;
31906;SDS011;18455;50.858;13.662;2024-02-14T22:43:08;1.47;;;1.30;;
31906;SDS011;18455;50.858;13.662;2024-02-14T22:48:09;1.93;;;1.50;;
31906;SDS011;18455;50.858;13.662;2024-02-14T22:53:11;1.50;;;1.30;;
31906;SDS011;18455;50.858;13.662;2024-02-14T22:58:12;2.60;;;1.40;;
31906;SDS011;18455;50.858;13.662;2024-02-14T23:03:12;1.43;;;1.33;;
31906;SDS011;18455;50.858;13.662;2024-02-14T23:08:14;2.17;;;1.70;;
31906;SDS011;18455;50.858;13.662;2024-02-14T23:13:16;1.40;;;1.30;;
31906;SDS011;18455;50.858;13.662;2024-02-14T23:18:16;1.50;;;1.40;;
31906;SDS011;18455;50.858;13.662;2024-02-14T23:23:16;3.47;;;1.57;;
31906;SDS011;18455;50.858;13.662;2024-02-14T23:28:16;1.37;;;1.30;;
31906;SDS011;18455;50.858;13.662;2024-02-14T23:33:17;1.20;;;1.20;;
31906;SDS011;18455;50.858;13.662;2024-02-14T23:38:17;1.17;;;1.07;;
31906;SDS011;18455;50.858;13.662;2024-02-14T23:43:17;1.43;;;1.33;;
31906;SDS011;18455;50.858;13.662;2024-02-14T23:48:18;2.67;;;1.67;;
31906;SDS011;18455;50.858;13.662;2024-02-14T23:53:18;1.30;;;1.20;;
31906;SDS011;18455;50.858;13.662;2024-02-14T23:58:18;1.30;;;1.10;;
